createdAt,value
2022-10-22T00:01:49.166Z,19.13
2022-10-22T00:04:51.618Z,19.06
2022-10-22T00:07:53.699Z,19.06
2022-10-22T00:10:55.941Z,19.06
2022-10-22T00:13:58.699Z,19.06
2022-10-22T00:17:01.094Z,19.06
2022-10-22T00:20:04.032Z,19.06
2022-10-22T00:23:06.137Z,19.06
2022-10-22T00:26:08.695Z,19.06
2022-10-22T00:29:10.855Z,19.00
2022-10-22T00:32:13.055Z,19.00
2022-10-22T00:35:15.224Z,19.06
2022-10-22T00:38:17.683Z,19.06
2022-10-22T00:41:19.888Z,19.06
2022-10-22T00:44:59.782Z,19.06
2022-10-22T00:48:05.972Z,19.00
2022-10-22T00:51:09.307Z,19.00
2022-10-22T00:54:11.601Z,19.00
2022-10-22T00:57:13.966Z,19.00
2022-10-22T01:00:16.560Z,19.06
2022-10-22T01:03:18.626Z,19.00
2022-10-22T01:06:26.811Z,19.00
2022-10-22T01:09:49.829Z,19.00
2022-10-22T01:13:23.199Z,19.00
2022-10-22T01:16:48.001Z,19.00
2022-10-22T01:20:11.893Z,19.00
2022-10-22T01:23:13.974Z,19.00
2022-10-22T01:26:31.199Z,19.00
2022-10-22T01:29:51.818Z,19.00
2022-10-22T01:32:59.537Z,19.00
2022-10-22T01:36:02.921Z,19.00
2022-10-22T01:39:07.262Z,18.94
2022-10-22T01:42:11.629Z,18.94
2022-10-22T01:45:14.549Z,18.94
2022-10-22T01:48:42.666Z,18.94
2022-10-22T01:52:05.562Z,18.94
2022-10-22T01:55:19.763Z,18.94
2022-10-22T01:58:24.643Z,18.94
2022-10-22T02:01:48.489Z,18.94
2022-10-22T02:05:00.971Z,18.94
2022-10-22T02:08:10.509Z,18.94
2022-10-22T02:11:14.162Z,18.94
2022-10-22T02:14:18.450Z,18.88
2022-10-22T02:17:22.403Z,18.88
2022-10-22T02:20:29.676Z,18.94
2022-10-22T02:23:31.937Z,18.94
2022-10-22T02:26:47.282Z,18.88
2022-10-22T02:30:02.812Z,18.94
2022-10-22T02:33:14.618Z,18.88
2022-10-22T02:36:18.251Z,18.88
2022-10-22T02:39:21.576Z,18.88
2022-10-22T02:42:25.868Z,18.88
2022-10-22T02:45:28.271Z,18.88
2022-10-22T02:48:30.372Z,18.94
2022-10-22T02:51:32.652Z,18.88
2022-10-22T02:54:34.876Z,18.88
2022-10-22T02:57:37.222Z,18.88
2022-10-22T03:00:39.995Z,18.88
2022-10-22T03:03:42.101Z,18.88
2022-10-22T03:06:44.719Z,18.88
2022-10-22T03:09:47.021Z,18.88
2022-10-22T03:12:49.156Z,18.88
2022-10-22T03:15:51.370Z,18.88
2022-10-22T03:18:53.466Z,18.88
2022-10-22T03:22:06.013Z,18.88
2022-10-22T03:25:12.095Z,18.88
2022-10-22T03:28:16.865Z,18.88
2022-10-22T03:31:18.976Z,18.81
2022-10-22T03:34:22.758Z,18.81
2022-10-22T03:37:26.243Z,18.88
2022-10-22T03:40:28.373Z,18.81
2022-10-22T03:43:30.722Z,18.81
2022-10-22T03:46:33.045Z,18.81
2022-10-22T03:49:35.352Z,18.81
2022-10-22T03:52:39.080Z,18.81
2022-10-22T03:55:41.669Z,18.88
2022-10-22T03:58:43.779Z,18.81
2022-10-22T04:01:46.045Z,18.81
2022-10-22T04:04:48.163Z,18.81
2022-10-22T04:07:50.326Z,18.81
2022-10-22T04:10:52.613Z,18.81
2022-10-22T04:13:54.859Z,18.81
2022-10-22T04:16:56.936Z,18.81
2022-10-22T04:19:59.060Z,18.81
2022-10-22T04:23:01.140Z,18.81
2022-10-22T04:26:06.360Z,18.81
2022-10-22T04:29:11.969Z,18.81
2022-10-22T04:32:17.341Z,18.81
2022-10-22T04:35:19.527Z,18.75
2022-10-22T04:38:21.553Z,18.75
2022-10-22T04:41:26.613Z,18.81
2022-10-22T04:44:28.710Z,18.81
2022-10-22T04:47:31.031Z,18.81
2022-10-22T04:50:33.176Z,18.81
2022-10-22T04:53:36.230Z,18.81
2022-10-22T04:56:38.452Z,18.75
2022-10-22T04:59:40.646Z,18.75
2022-10-22T05:02:44.692Z,18.75
2022-10-22T05:05:46.786Z,18.75
2022-10-22T05:08:53.094Z,18.75
2022-10-22T05:11:55.664Z,18.75
2022-10-22T05:14:57.744Z,18.75
2022-10-22T05:17:59.858Z,18.75
2022-10-22T05:21:02.328Z,18.75
2022-10-22T05:24:04.813Z,18.75
2022-10-22T05:27:07.018Z,18.75
2022-10-22T05:30:09.360Z,18.75
2022-10-22T05:33:11.430Z,18.75
2022-10-22T05:36:16.604Z,18.88
2022-10-22T05:39:18.706Z,19.25
2022-10-22T05:42:20.825Z,19.56
2022-10-22T05:45:22.886Z,19.75
2022-10-22T05:48:25.083Z,19.88
2022-10-22T05:51:28.920Z,19.94
2022-10-22T05:54:31.001Z,20.00
2022-10-22T05:57:33.104Z,20.00
2022-10-22T06:00:35.288Z,20.06
2022-10-22T06:03:37.528Z,20.06
2022-10-22T06:06:45.388Z,20.06
2022-10-22T06:09:50.129Z,20.06
2022-10-22T06:12:52.268Z,20.06
2022-10-22T06:15:54.315Z,20.06
2022-10-22T06:18:56.344Z,20.06
2022-10-22T06:21:58.449Z,20.06
2022-10-22T06:25:00.496Z,20.06
2022-10-22T06:28:02.670Z,20.06
2022-10-22T06:31:05.139Z,20.13
2022-10-22T06:34:10.822Z,20.06
2022-10-22T06:37:15.239Z,20.00
2022-10-22T06:40:18.713Z,20.00
2022-10-22T06:43:20.995Z,20.00
2022-10-22T06:46:24.302Z,19.94
2022-10-22T06:49:26.414Z,20.00
2022-10-22T06:52:28.536Z,19.94
2022-10-22T06:55:30.686Z,19.94
2022-10-22T06:58:32.935Z,19.94
2022-10-22T07:01:36.151Z,19.88
2022-10-22T07:04:38.338Z,19.88
2022-10-22T07:07:40.417Z,19.88
2022-10-22T07:10:42.468Z,19.81
2022-10-22T07:13:45.418Z,19.81
2022-10-22T07:16:47.560Z,19.81
2022-10-22T07:19:51.285Z,19.81
2022-10-22T07:22:54.120Z,19.81
2022-10-22T07:29:04.182Z,19.75
2022-10-22T07:32:06.471Z,19.75
2022-10-22T07:35:08.770Z,19.75
2022-10-22T07:38:11.093Z,19.75
2022-10-22T07:41:14.347Z,19.75
2022-10-22T07:44:16.419Z,19.69
2022-10-22T07:47:18.491Z,19.75
2022-10-22T07:50:20.700Z,19.69
2022-10-22T07:53:23.108Z,19.75
2022-10-22T07:56:25.215Z,19.81
2022-10-22T07:59:27.339Z,19.81
2022-10-22T08:02:29.575Z,19.81
2022-10-22T08:05:31.641Z,19.88
2022-10-22T08:08:34.650Z,19.88
2022-10-22T08:11:36.835Z,19.94
2022-10-22T08:14:38.892Z,20.06
2022-10-22T08:17:41.244Z,20.13
2022-10-22T08:20:43.485Z,20.13
2022-10-22T08:23:45.668Z,20.13
2022-10-22T08:26:47.810Z,20.19
2022-10-22T08:29:50.742Z,20.19
2022-10-22T08:32:54.078Z,20.13
2022-10-22T08:35:56.367Z,20.13
2022-10-22T08:38:58.415Z,20.13
2022-10-22T08:42:22.378Z,20.06
2022-10-22T08:45:55.854Z,20.06
2022-10-22T08:49:01.746Z,20.06
2022-10-22T08:52:04.826Z,20.00
2022-10-22T08:55:12.801Z,19.94
2022-10-22T08:58:42.272Z,19.94
2022-10-22T09:01:48.996Z,19.88
2022-10-22T09:05:15.214Z,19.88
2022-10-22T09:08:19.352Z,19.81
2022-10-22T09:11:35.684Z,19.75
2022-10-22T09:14:37.768Z,19.75
2022-10-22T09:17:59.524Z,19.75
2022-10-22T09:21:23.361Z,19.69
2022-10-22T09:24:39.190Z,19.25
2022-10-22T09:27:41.443Z,18.88
2022-10-22T09:30:43.961Z,18.75
2022-10-22T09:33:50.221Z,18.63
2022-10-22T09:37:01.155Z,18.81
2022-10-22T09:40:05.806Z,18.69
2022-10-22T09:43:12.356Z,18.50
2022-10-22T09:46:20.554Z,18.81
2022-10-22T09:49:24.192Z,18.56
2022-10-22T09:52:30.323Z,18.63
2022-10-22T09:55:33.038Z,18.75
2022-10-22T09:58:46.291Z,18.81
2022-10-22T10:02:08.349Z,18.75
2022-10-22T10:05:25.777Z,18.69
2022-10-22T10:08:27.978Z,18.88
2022-10-22T10:11:37.267Z,18.94
2022-10-22T10:14:57.727Z,19.06
2022-10-22T10:18:05.554Z,19.13
2022-10-22T10:21:29.173Z,19.25
2022-10-22T10:24:53.049Z,19.38
2022-10-22T10:28:25.431Z,19.50
2022-10-22T10:31:42.214Z,19.44
2022-10-22T10:35:12.329Z,19.44
2022-10-22T10:38:40.622Z,19.50
2022-10-22T10:41:51.827Z,19.50
2022-10-22T10:45:08.173Z,19.63
2022-10-22T10:48:38.586Z,19.63
2022-10-22T10:52:21.546Z,19.69
2022-10-22T10:55:40.949Z,19.75
2022-10-22T10:59:09.972Z,19.81
2022-10-22T11:02:33.248Z,19.75
2022-10-22T11:05:58.885Z,19.75
2022-10-22T11:09:27.812Z,19.75
2022-10-22T11:12:39.062Z,19.75
2022-10-22T11:15:44.795Z,19.75
2022-10-22T11:19:15.500Z,19.75
2022-10-22T11:22:38.010Z,19.75
2022-10-22T11:25:46.178Z,19.69
2022-10-22T11:28:53.525Z,19.75
2022-10-22T11:31:56.675Z,19.75
2022-10-22T11:35:02.750Z,19.75
2022-10-22T11:38:07.567Z,19.75
2022-10-22T11:41:15.921Z,19.81
2022-10-22T11:44:25.941Z,19.81
2022-10-22T11:47:34.341Z,19.75
2022-10-22T11:50:50.867Z,19.75
2022-10-22T11:53:57.866Z,19.69
2022-10-22T11:57:15.287Z,19.81
2022-10-22T12:00:35.666Z,19.75
2022-10-22T12:04:10.788Z,19.75
2022-10-22T12:07:33.533Z,19.88
2022-10-22T12:10:57.273Z,19.75
2022-10-22T12:14:16.044Z,19.75
2022-10-22T12:17:19.541Z,19.81
2022-10-22T12:20:25.961Z,19.94
2022-10-22T12:23:35.233Z,19.81
2022-10-22T12:26:37.910Z,19.81
2022-10-22T12:29:39.948Z,19.94
2022-10-22T12:32:42.100Z,19.94
2022-10-22T12:35:46.493Z,19.88
2022-10-22T12:38:48.649Z,20.00
2022-10-22T12:41:53.428Z,20.13
2022-10-22T12:44:56.617Z,20.06
2022-10-22T12:48:04.283Z,20.00
2022-10-22T12:51:08.143Z,20.06
2022-10-22T12:54:25.796Z,20.19
2022-10-22T12:57:27.930Z,20.13
2022-10-22T13:00:35.104Z,20.06
2022-10-22T13:03:51.731Z,20.00
2022-10-22T13:07:18.327Z,20.19
2022-10-22T13:10:34.999Z,20.38
2022-10-22T13:13:37.072Z,20.50
2022-10-22T13:16:40.413Z,20.63
2022-10-22T13:19:53.895Z,20.69
2022-10-22T13:23:02.593Z,20.56
2022-10-22T13:26:13.412Z,20.50
2022-10-22T13:29:19.332Z,20.31
2022-10-22T13:32:33.386Z,20.25
2022-10-22T13:35:38.222Z,20.50
2022-10-22T13:38:40.871Z,20.56
2022-10-22T13:41:43.093Z,20.69
2022-10-22T13:44:45.209Z,20.50
2022-10-22T13:47:54.342Z,20.75
2022-10-22T13:50:56.513Z,20.81
2022-10-22T13:53:58.767Z,20.94
2022-10-22T13:57:00.933Z,21.06
2022-10-22T14:00:03.556Z,21.13
2022-10-22T14:03:06.538Z,21.19
2022-10-22T14:06:16.349Z,21.25
2022-10-22T14:09:18.851Z,21.31
2022-10-22T14:12:21.421Z,21.31
2022-10-22T14:15:25.496Z,21.25
2022-10-22T14:18:31.575Z,21.31
2022-10-22T14:21:37.735Z,21.44
2022-10-22T14:24:39.793Z,21.44
2022-10-22T14:27:45.236Z,21.50
2022-10-22T14:30:48.149Z,21.50
2022-10-22T14:33:50.402Z,21.50
2022-10-22T14:36:52.508Z,21.44
2022-10-22T14:40:01.186Z,21.38
2022-10-22T14:43:03.262Z,21.38
2022-10-22T14:46:05.404Z,21.31
2022-10-22T14:49:07.638Z,21.19
2022-10-22T14:52:11.773Z,21.13
2022-10-22T14:55:18.259Z,20.94
2022-10-22T14:58:20.588Z,20.94
2022-10-22T15:01:22.787Z,20.88
2022-10-22T15:04:26.999Z,20.81
2022-10-22T15:07:29.277Z,20.81
2022-10-22T15:10:31.387Z,20.75
2022-10-22T15:13:34.800Z,20.75
2022-10-22T15:16:36.913Z,20.75
2022-10-22T15:19:38.974Z,20.75
2022-10-22T15:22:41.265Z,20.69
2022-10-22T15:25:44.524Z,20.63
2022-10-22T15:28:46.615Z,20.63
2022-10-22T15:31:54.521Z,20.56
2022-10-22T15:34:56.712Z,20.50
2022-10-22T15:38:01.327Z,20.50
2022-10-22T15:41:05.987Z,20.50
2022-10-22T15:44:08.918Z,20.44
2022-10-22T15:47:11.094Z,20.44
2022-10-22T15:50:13.294Z,20.44
2022-10-22T15:53:15.378Z,20.38
2022-10-22T15:56:17.543Z,20.38
2022-10-22T15:59:19.645Z,20.38
2022-10-22T16:02:21.713Z,20.31
2022-10-22T16:05:23.816Z,20.31
2022-10-22T16:08:26.494Z,20.31
2022-10-22T16:11:29.398Z,20.25
2022-10-22T16:14:31.621Z,20.25
2022-10-22T16:17:33.713Z,20.25
2022-10-22T16:20:40.197Z,20.19
2022-10-22T16:23:42.877Z,20.19
2022-10-22T16:26:45.142Z,20.13
2022-10-22T16:29:47.386Z,20.13
2022-10-22T16:32:49.566Z,20.13
2022-10-22T16:35:51.664Z,20.13
2022-10-22T16:38:53.842Z,20.13
2022-10-22T16:41:56.022Z,20.13
2022-10-22T16:44:58.123Z,20.06
2022-10-22T16:48:00.178Z,20.06
2022-10-22T16:51:07.348Z,20.06
2022-10-22T16:54:12.619Z,20.06
2022-10-22T16:57:14.846Z,20.00
2022-10-22T17:00:17.212Z,20.00
2022-10-22T17:03:19.285Z,20.00
2022-10-22T17:06:22.370Z,20.00
2022-10-22T17:09:25.361Z,20.00
2022-10-22T17:12:27.460Z,20.00
2022-10-22T17:15:29.693Z,20.00
2022-10-22T17:18:32.364Z,19.94
2022-10-22T17:21:34.463Z,19.94
2022-10-22T17:24:36.540Z,19.94
2022-10-22T17:27:38.832Z,19.94
2022-10-22T17:30:41.300Z,19.94
2022-10-22T17:33:43.832Z,19.94
2022-10-22T17:36:46.031Z,19.94
2022-10-22T17:39:48.131Z,19.94
2022-10-22T17:42:50.201Z,19.88
2022-10-22T17:45:52.316Z,19.88
2022-10-22T17:48:56.975Z,19.88
2022-10-22T17:55:06.415Z,19.88
2022-10-22T17:58:08.465Z,19.88
2022-10-22T18:01:25.043Z,19.88
2022-10-22T18:04:27.840Z,19.81
2022-10-22T18:07:29.928Z,19.81
2022-10-22T18:10:32.064Z,19.81
2022-10-22T18:13:34.502Z,19.81
2022-10-22T18:16:36.720Z,19.81
2022-10-22T18:19:38.789Z,19.81
2022-10-22T18:22:42.167Z,19.81
2022-10-22T18:25:44.460Z,19.81
2022-10-22T18:28:48.665Z,19.81
2022-10-22T18:31:50.819Z,19.81
2022-10-22T18:34:53.050Z,19.75
2022-10-22T18:37:55.091Z,19.75
2022-10-22T18:40:57.138Z,19.75
2022-10-22T18:44:01.801Z,19.75
2022-10-22T18:47:04.013Z,19.75
2022-10-22T18:50:06.596Z,19.75
2022-10-22T18:53:09.088Z,19.75
2022-10-22T18:56:12.438Z,19.75
2022-10-22T18:59:21.267Z,19.75
2022-10-22T19:02:23.348Z,19.69
2022-10-22T19:05:25.524Z,19.69
2022-10-22T19:08:27.633Z,19.69
2022-10-22T19:11:29.726Z,19.69
2022-10-22T19:14:32.266Z,19.69
2022-10-22T19:17:34.853Z,19.69
2022-10-22T19:20:37.556Z,19.69
2022-10-22T19:23:39.690Z,19.69
2022-10-22T19:26:42.213Z,19.69
2022-10-22T19:29:45.517Z,19.75
2022-10-22T19:32:48.864Z,19.69
2022-10-22T19:35:51.013Z,19.63
2022-10-22T19:38:53.121Z,19.69
2022-10-22T19:41:55.224Z,19.63
2022-10-22T19:44:57.639Z,19.63
2022-10-22T19:47:59.737Z,19.63
2022-10-22T19:51:04.711Z,19.69
2022-10-22T19:54:10.991Z,19.63
2022-10-22T19:57:18.358Z,19.63
2022-10-22T20:00:20.710Z,19.63
2022-10-22T20:03:23.122Z,19.56
2022-10-22T20:06:25.399Z,19.56
2022-10-22T20:09:27.640Z,19.63
2022-10-22T20:12:29.716Z,19.56
2022-10-22T20:15:32.927Z,19.56
2022-10-22T20:18:36.297Z,19.56
2022-10-22T20:21:39.438Z,19.56
2022-10-22T20:24:41.536Z,19.56
2022-10-22T20:27:43.711Z,19.56
2022-10-22T20:30:46.368Z,19.56
2022-10-22T20:33:50.536Z,19.56
2022-10-22T20:36:52.790Z,19.56
2022-10-22T20:39:54.886Z,19.56
2022-10-22T20:42:57.040Z,19.56
2022-10-22T20:45:59.409Z,19.50
2022-10-22T20:49:07.601Z,19.56
2022-10-22T20:52:09.788Z,19.50
2022-10-22T20:55:13.065Z,19.50
2022-10-22T20:58:15.351Z,19.50
2022-10-22T21:01:27.935Z,19.50
2022-10-22T21:04:30.396Z,19.50
2022-10-22T21:07:32.575Z,19.50
2022-10-22T21:10:35.394Z,19.50
2022-10-22T21:13:37.657Z,19.50
2022-10-22T21:16:50.818Z,19.50
2022-10-22T21:19:52.830Z,19.50
2022-10-22T21:22:54.966Z,19.44
2022-10-22T21:25:58.301Z,19.44
2022-10-22T21:29:00.352Z,19.44
2022-10-22T21:32:02.400Z,19.44
2022-10-22T21:35:04.949Z,19.44
2022-10-22T21:38:07.917Z,19.44
2022-10-22T21:41:12.198Z,19.44
2022-10-22T21:44:14.334Z,19.44
2022-10-22T21:47:16.372Z,19.44
2022-10-22T21:50:18.572Z,19.44
2022-10-22T21:53:20.668Z,19.44
2022-10-22T21:56:28.667Z,19.44
2022-10-22T21:59:32.246Z,19.44
2022-10-22T22:02:34.501Z,19.44
2022-10-22T22:05:37.008Z,19.44
2022-10-22T22:08:39.718Z,19.44
2022-10-22T22:11:41.829Z,19.44
2022-10-22T22:14:43.993Z,19.44
2022-10-22T22:17:46.965Z,19.38
2022-10-22T22:20:49.109Z,19.38
2022-10-22T22:23:51.587Z,19.38
2022-10-22T22:26:53.639Z,19.38
2022-10-22T22:29:55.675Z,19.38
2022-10-22T22:32:57.777Z,19.38
2022-10-22T22:35:59.962Z,19.38
2022-10-22T22:39:02.560Z,19.38
2022-10-22T22:42:04.679Z,19.31
2022-10-22T22:45:07.134Z,19.31
2022-10-22T22:48:09.240Z,19.31
2022-10-22T22:51:11.449Z,19.38
2022-10-22T22:54:13.481Z,19.31
2022-10-22T22:57:15.827Z,19.31
2022-10-22T23:00:18.075Z,19.31
2022-10-22T23:03:20.173Z,19.31
2022-10-22T23:06:23.618Z,19.31
2022-10-22T23:09:25.690Z,19.31
2022-10-22T23:12:28.861Z,19.31
2022-10-22T23:15:30.924Z,19.31
2022-10-22T23:18:33.067Z,19.31
2022-10-22T23:21:39.025Z,19.25
2022-10-22T23:24:41.524Z,19.25
2022-10-22T23:27:43.939Z,19.25
2022-10-22T23:30:46.363Z,19.25
2022-10-22T23:33:49.324Z,19.25
2022-10-22T23:36:52.511Z,19.25
2022-10-22T23:39:54.619Z,19.25
2022-10-22T23:42:56.673Z,19.25
2022-10-22T23:45:58.819Z,19.19
2022-10-22T23:49:01.737Z,19.19
2022-10-22T23:52:03.906Z,19.19
2022-10-22T23:55:06.631Z,19.19
2022-10-22T23:58:09.286Z,19.19
